Terminal Aerodrome Forecast
Issued by NWS

Home | Current Version | Previous Version | Text Only | Print | Product List | Glossary On
Versions: 1 2 3 4 5 6 7 8 9 10 11 12 13 14 15 16 17
040
FTUS45 KVEF 220214 AAA
TAFDAG
TAF AMD
KDAG 220214Z 2202/2224 24015KT P6SM FEW050 SCT200
     FM220600 25008KT P6SM FEW050 BKN080 OVC200
     FM221200 24007KT P6SM VCSH SCT040 BKN060
     FM221500 24007KT P6SM -SHRA SCT040 OVC050
     FM221900 10010KT P6SM -RA SCT030 OVC040=

USA.gov is the U.S. government's official web portal to all federal, state and local government web resources and services.